Time;durP1;ratioP1;P1;durP2;ratioP2;P2;SDS_P1;SDS_P2;PMS_P1;PMS_P2;Temp;Humidity;BMP_temperature;BMP_pressure;BME280_temperature;BME280_humidity;BME280_pressure;Samples;Min_cycle;Max_cycle;Signal;HPM_P1;HPM_P2
2022/07/27 00:01:48;;;;;;;2.40;1.70;;;;;;;;;;4987956;28;20209;-73
2022/07/27 00:04:16;;;;;;;5.67;1.83;;;;;;;;;;4988477;28;20205;-73
2022/07/27 00:06:44;;;;;;;4.40;1.97;;;;;;;;;;4986077;28;20224;-73
2022/07/27 00:09:11;;;;;;;2.20;1.67;;;;;;;;;;4989337;28;20205;-73
2022/07/27 00:11:38;;;;;;;4.87;1.83;;;;;;;;;;4988522;28;20205;-73
2022/07/27 00:14:05;;;;;;;4.33;1.80;;;;;;;;;;4988175;28;20217;-73
2022/07/27 00:16:33;;;;;;;3.43;1.90;;;;;;;;;;4985839;28;20220;-73
2022/07/27 00:19:00;;;;;;;3.00;2.17;;;;;;;;;;4990049;28;20696;-73
2022/07/27 00:21:28;;;;;;;5.50;2.10;;;;;;;;;;4990650;28;20223;-73
2022/07/27 00:23:56;;;;;;;5.90;2.27;;;;;;;;;;4989019;28;20232;-73
2022/07/27 00:26:23;;;;;;;3.20;2.00;;;;;;;;;;4989453;28;20236;-73
2022/07/27 00:28:50;;;;;;;4.03;1.90;;;;;;;;;;4989312;28;20236;-73
2022/07/27 00:31:18;;;;;;;3.23;1.73;;;;;;;;;;4989897;28;20640;-73
2022/07/27 00:33:45;;;;;;;4.40;2.20;;;;;;;;;;4986491;28;20215;-73
2022/07/27 00:36:12;;;;;;;4.17;1.90;;;;;;;;;;4988926;28;20319;-74
2022/07/27 00:38:41;;;;;;;3.50;1.70;;;;;;;;;;4987438;28;20300;-74
2022/07/27 00:41:08;;;;;;;7.30;1.90;;;;;;;;;;4987223;28;20640;-74
2022/07/27 00:43:49;;;;;;;4.73;1.80;;;;;;;;;;4988220;28;21492;-74
2022/07/27 00:46:17;;;;;;;5.03;2.13;;;;;;;;;;4991910;28;20224;-73
2022/07/27 00:48:44;;;;;;;2.57;1.70;;;;;;;;;;4987144;28;20229;-73
2022/07/27 00:51:11;;;;;;;5.50;2.27;;;;;;;;;;4987686;28;20227;-73
2022/07/27 00:53:40;;;;;;;3.97;1.80;;;;;;;;;;4987275;28;20208;-74
2022/07/27 00:56:07;;;;;;;2.67;1.77;;;;;;;;;;4990933;28;20325;-74
2022/07/27 00:58:35;;;;;;;3.87;1.77;;;;;;;;;;4985461;28;20205;-74
2022/07/27 01:01:02;;;;;;;3.07;2.13;;;;;;;;;;4987136;28;20197;-73
2022/07/27 01:03:30;;;;;;;7.77;1.80;;;;;;;;;;4983712;28;20212;-73
2022/07/27 01:05:57;;;;;;;7.67;2.30;;;;;;;;;;4987042;28;20316;-73
2022/07/27 01:08:25;;;;;;;8.03;2.30;;;;;;;;;;4987090;28;20316;-73
2022/07/27 01:10:55;;;;;;;4.23;2.40;;;;;;;;;;4985521;28;20212;-74
2022/07/27 01:13:22;;;;;;;3.13;2.20;;;;;;;;;;4988590;28;20299;-73
2022/07/27 01:15:50;;;;;;;4.80;2.20;;;;;;;;;;4985013;28;20221;-73
2022/07/27 01:18:27;;;;;;;5.43;2.40;;;;;;;;;;4989843;28;20201;-74
2022/07/27 01:20:54;;;;;;;6.03;2.80;;;;;;;;;;4987380;28;20209;-73
2022/07/27 01:23:23;;;;;;;6.60;2.50;;;;;;;;;;4988505;28;20613;-73
2022/07/27 01:25:50;;;;;;;5.70;2.73;;;;;;;;;;4988224;28;20246;-73
2022/07/27 01:28:17;;;;;;;6.23;2.80;;;;;;;;;;4989018;28;20606;-73
2022/07/27 01:30:44;;;;;;;3.00;2.10;;;;;;;;;;4985135;28;20205;-73
2022/07/27 01:33:12;;;;;;;6.37;2.43;;;;;;;;;;4988081;28;20295;-73
2022/07/27 01:35:40;;;;;;;8.63;2.47;;;;;;;;;;4987833;28;20255;-73
2022/07/27 01:38:07;;;;;;;3.00;2.20;;;;;;;;;;4987075;28;20197;-73
2022/07/27 01:40:36;;;;;;;5.33;2.13;;;;;;;;;;4988987;28;20303;-73
2022/07/27 01:43:04;;;;;;;7.07;2.17;;;;;;;;;;4988350;28;20297;-73
2022/07/27 01:45:31;;;;;;;6.60;2.20;;;;;;;;;;4987038;28;20228;-73
2022/07/27 01:47:59;;;;;;;2.70;2.00;;;;;;;;;;4986567;28;20235;-74
2022/07/27 01:50:26;;;;;;;5.60;2.10;;;;;;;;;;4989388;28;20232;-73
2022/07/27 01:52:53;;;;;;;8.17;2.10;;;;;;;;;;4984291;28;20847;-73
2022/07/27 01:55:20;;;;;;;8.20;2.20;;;;;;;;;;4987200;28;20229;-73
2022/07/27 01:57:49;;;;;;;5.83;2.60;;;;;;;;;;4984767;28;20208;-73
2022/07/27 02:00:16;;;;;;;4.40;1.73;;;;;;;;;;4988351;28;20248;-73
2022/07/27 02:02:43;;;;;;;7.73;2.00;;;;;;;;;;4983905;28;20212;-73
2022/07/27 02:05:11;;;;;;;4.93;1.83;;;;;;;;;;4986755;28;20221;-73
2022/07/27 02:07:39;;;;;;;7.07;2.20;;;;;;;;;;4986401;28;20209;-73
2022/07/27 02:10:06;;;;;;;6.17;2.20;;;;;;;;;;4988062;28;20205;-73
2022/07/27 02:12:36;;;;;;;6.70;2.00;;;;;;;;;;4983505;28;20223;-74
2022/07/27 02:15:06;;;;;;;4.80;2.23;;;;;;;;;;4987154;28;20224;-73
2022/07/27 02:17:33;;;;;;;5.23;2.17;;;;;;;;;;4985544;28;20248;-73
2022/07/27 02:20:00;;;;;;;9.73;2.43;;;;;;;;;;4985518;28;20204;-73
2022/07/27 02:22:27;;;;;;;3.63;2.00;;;;;;;;;;4986153;28;20634;-74
2022/07/27 02:24:55;;;;;;;6.23;2.10;;;;;;;;;;4988175;28;20291;-73
2022/07/27 02:27:22;;;;;;;3.33;2.00;;;;;;;;;;4985641;28;20202;-73
2022/07/27 02:29:49;;;;;;;6.77;2.17;;;;;;;;;;4986443;28;20228;-73
2022/07/27 02:32:18;;;;;;;8.33;2.20;;;;;;;;;;4986852;28;20284;-73
2022/07/27 02:34:45;;;;;;;6.63;2.37;;;;;;;;;;4985149;28;20209;-73
2022/07/27 02:37:12;;;;;;;9.07;2.63;;;;;;;;;;4987831;28;20205;-73
2022/07/27 02:39:39;;;;;;;8.43;2.20;;;;;;;;;;4982720;28;20209;-73
2022/07/27 02:42:07;;;;;;;7.43;2.20;;;;;;;;;;4985726;28;20212;-73
2022/07/27 02:44:34;;;;;;;4.57;2.10;;;;;;;;;;4985701;28;20295;-73
2022/07/27 02:47:01;;;;;;;3.93;2.00;;;;;;;;;;4987734;28;20221;-73
2022/07/27 02:49:29;;;;;;;8.30;2.30;;;;;;;;;;4983882;28;20229;-74
2022/07/27 02:51:56;;;;;;;14.97;2.57;;;;;;;;;;4984542;28;20209;-74
2022/07/27 02:54:24;;;;;;;6.87;2.00;;;;;;;;;;4985805;28;20212;-73
2022/07/27 02:56:52;;;;;;;5.17;1.80;;;;;;;;;;4985120;28;20358;-73
2022/07/27 02:59:22;;;;;;;4.17;1.70;;;;;;;;;;4984730;28;20651;-74
2022/07/27 03:01:49;;;;;;;5.30;2.10;;;;;;;;;;4985180;28;20287;-74
2022/07/27 03:04:17;;;;;;;6.37;2.00;;;;;;;;;;4987228;28;20244;-73
2022/07/27 03:06:46;;;;;;;5.17;2.03;;;;;;;;;;4992514;28;20595;-73
2022/07/27 03:09:13;;;;;;;5.20;2.23;;;;;;;;;;4997616;28;20335;-73
2022/07/27 03:11:40;;;;;;;11.20;2.37;;;;;;;;;;4985942;28;20215;-73
2022/07/27 03:14:07;;;;;;;10.20;2.00;;;;;;;;;;4986122;28;20300;-73
2022/07/27 03:16:34;;;;;;;8.13;2.03;;;;;;;;;;4984967;28;20248;-73
2022/07/27 03:19:02;;;;;;;6.87;2.30;;;;;;;;;;4983896;28;20204;-73
2022/07/27 03:21:29;;;;;;;4.30;1.67;;;;;;;;;;4985387;28;20299;-73
2022/07/27 03:23:57;;;;;;;6.27;1.70;;;;;;;;;;4985165;28;20206;-73
2022/07/27 03:26:24;;;;;;;9.13;2.10;;;;;;;;;;4986849;28;20226;-73
2022/07/27 03:28:52;;;;;;;6.27;1.80;;;;;;;;;;4980148;28;20612;-73
2022/07/27 03:31:19;;;;;;;6.77;2.13;;;;;;;;;;4985211;28;20659;-73
2022/07/27 03:33:46;;;;;;;8.23;1.73;;;;;;;;;;4981305;28;20208;-73
2022/07/27 03:36:13;;;;;;;10.03;2.10;;;;;;;;;;4984502;28;20247;-73
2022/07/27 03:38:40;;;;;;;4.57;2.10;;;;;;;;;;4984276;28;20207;-73
2022/07/27 03:41:08;;;;;;;13.03;2.47;;;;;;;;;;4983631;28;20204;-73
2022/07/27 03:43:36;;;;;;;11.50;2.10;;;;;;;;;;4983103;28;20209;-73
2022/07/27 03:46:03;;;;;;;4.13;1.83;;;;;;;;;;4983161;28;20220;-73
2022/07/27 03:48:30;;;;;;;6.40;1.87;;;;;;;;;;4983748;28;20321;-73
2022/07/27 03:50:57;;;;;;;5.90;1.90;;;;;;;;;;4983374;28;21832;-73
2022/07/27 03:53:24;;;;;;;6.13;2.10;;;;;;;;;;4984432;28;20292;-73
2022/07/27 03:55:52;;;;;;;7.20;2.13;;;;;;;;;;4986336;28;21023;-73
2022/07/27 03:58:22;;;;;;;6.77;2.00;;;;;;;;;;4983539;28;20206;-73
2022/07/27 04:00:49;;;;;;;8.87;2.23;;;;;;;;;;4979165;28;20216;-73
2022/07/27 04:03:16;;;;;;;6.37;2.37;;;;;;;;;;4985404;28;20296;-74
2022/07/27 04:05:43;;;;;;;5.83;1.90;;;;;;;;;;4986642;28;20316;-73
2022/07/27 04:08:10;;;;;;;6.70;1.80;;;;;;;;;;4985016;28;20288;-73
2022/07/27 04:10:37;;;;;;;9.20;2.40;;;;;;;;;;4985450;28;20293;-73
2022/07/27 04:13:05;;;;;;;5.80;2.10;;;;;;;;;;4984632;28;20568;-73
2022/07/27 04:15:33;;;;;;;7.97;1.90;;;;;;;;;;4986581;28;20225;-73
2022/07/27 04:18:00;;;;;;;5.50;1.63;;;;;;;;;;4985673;28;20301;-73
2022/07/27 04:20:27;;;;;;;16.73;2.30;;;;;;;;;;4984439;28;20212;-73
2022/07/27 04:22:54;;;;;;;3.93;1.80;;;;;;;;;;4984041;28;20213;-73
2022/07/27 04:25:22;;;;;;;5.33;1.90;;;;;;;;;;4986843;28;20233;-74
2022/07/27 04:27:49;;;;;;;5.23;1.93;;;;;;;;;;4985555;28;20209;-73
2022/07/27 04:30:16;;;;;;;6.50;2.23;;;;;;;;;;4988678;28;20564;-73
2022/07/27 04:32:45;;;;;;;10.07;1.77;;;;;;;;;;4987359;28;20305;-72
2022/07/27 04:35:12;;;;;;;12.77;2.20;;;;;;;;;;4988549;28;20231;-73
2022/07/27 04:37:39;;;;;;;7.97;2.20;;;;;;;;;;4983805;28;20652;-73
2022/07/27 04:40:08;;;;;;;6.60;2.30;;;;;;;;;;4980132;28;20208;-73
2022/07/27 04:42:35;;;;;;;6.53;2.13;;;;;;;;;;4987789;28;20303;-72
2022/07/27 04:45:02;;;;;;;4.93;1.70;;;;;;;;;;4981071;28;20567;-73
2022/07/27 04:47:29;;;;;;;5.53;1.67;;;;;;;;;;4983787;28;20294;-74
2022/07/27 04:49:58;;;;;;;6.00;1.83;;;;;;;;;;4985753;28;20328;-74
2022/07/27 04:52:25;;;;;;;4.93;1.50;;;;;;;;;;4988160;28;20566;-74
2022/07/27 04:54:52;;;;;;;7.10;2.07;;;;;;;;;;4989078;28;20220;-73
2022/07/27 04:57:20;;;;;;;7.10;1.73;;;;;;;;;;4980313;28;20205;-74
2022/07/27 04:59:47;;;;;;;6.83;1.57;;;;;;;;;;4984154;28;20193;-74
2022/07/27 05:02:14;;;;;;;5.30;1.30;;;;;;;;;;4986696;28;20219;-73
2022/07/27 05:04:41;;;;;;;5.73;1.17;;;;;;;;;;4982729;28;20219;-74
2022/07/27 05:07:10;;;;;;;5.37;1.27;;;;;;;;;;4984787;28;20556;-74
2022/07/27 05:09:37;;;;;;;6.27;1.47;;;;;;;;;;4990282;28;20225;-74
2022/07/27 05:12:04;;;;;;;4.33;1.10;;;;;;;;;;4985517;28;20209;-74
2022/07/27 05:14:31;;;;;;;7.13;1.50;;;;;;;;;;4986724;28;20215;-74
2022/07/27 05:16:58;;;;;;;5.93;1.40;;;;;;;;;;4982784;28;20233;-73
2022/07/27 05:19:26;;;;;;;5.77;1.13;;;;;;;;;;4982617;28;20201;-73
2022/07/27 05:21:53;;;;;;;8.33;1.47;;;;;;;;;;4987550;28;20221;-73
2022/07/27 05:24:21;;;;;;;9.63;1.53;;;;;;;;;;4983519;28;20217;-74
2022/07/27 05:26:48;;;;;;;7.90;1.57;;;;;;;;;;4980440;28;20987;-74
2022/07/27 05:29:15;;;;;;;6.73;1.50;;;;;;;;;;4982706;28;20597;-73
2022/07/27 05:31:43;;;;;;;8.87;1.30;;;;;;;;;;4983226;28;20209;-74
2022/07/27 05:34:10;;;;;;;7.07;1.53;;;;;;;;;;4983966;28;20296;-74
2022/07/27 05:36:37;;;;;;;8.20;1.33;;;;;;;;;;4982817;28;20232;-74
2022/07/27 05:39:04;;;;;;;5.43;1.13;;;;;;;;;;4979450;28;20212;-73
2022/07/27 05:41:33;;;;;;;5.33;1.20;;;;;;;;;;4988110;28;20293;-73
2022/07/27 05:44:00;;;;;;;5.43;1.40;;;;;;;;;;4987973;28;20288;-73
2022/07/27 05:46:27;;;;;;;5.80;1.30;;;;;;;;;;4988458;28;20233;-74
2022/07/27 05:48:54;;;;;;;4.90;1.23;;;;;;;;;;4987786;28;20311;-73
2022/07/27 05:51:21;;;;;;;6.00;1.57;;;;;;;;;;4989823;28;20201;-74
2022/07/27 05:53:48;;;;;;;6.30;1.30;;;;;;;;;;4988771;28;20205;-73
2022/07/27 05:56:15;;;;;;;5.43;1.30;;;;;;;;;;4989723;28;20220;-73
2022/07/27 05:58:44;;;;;;;4.60;1.10;;;;;;;;;;4989557;28;20645;-74
2022/07/27 06:01:11;;;;;;;6.33;1.20;;;;;;;;;;4982759;28;20223;-73
2022/07/27 06:03:38;;;;;;;9.53;1.63;;;;;;;;;;4983891;28;20212;-73
2022/07/27 06:08:50;;;;;;;6.03;1.10;;;;;;;;;;4984816;28;20332;-72
2022/07/27 06:11:17;;;;;;;7.97;1.47;;;;;;;;;;4986610;28;20224;-73
2022/07/27 06:13:46;;;;;;;4.67;1.00;;;;;;;;;;4981871;28;20209;-73
2022/07/27 06:16:13;;;;;;;5.03;1.20;;;;;;;;;;4986925;28;20862;-73
2022/07/27 06:18:40;;;;;;;2.80;0.90;;;;;;;;;;4990065;28;20207;-72
2022/07/27 06:21:07;;;;;;;4.03;1.07;;;;;;;;;;4988959;28;20234;-73
2022/07/27 06:23:34;;;;;;;2.33;1.03;;;;;;;;;;4985802;28;20223;-74
2022/07/27 06:26:01;;;;;;;5.93;1.20;;;;;;;;;;4983160;28;20235;-73
2022/07/27 06:28:28;;;;;;;4.77;1.10;;;;;;;;;;4986631;28;20303;-73
2022/07/27 06:30:57;;;;;;;5.00;1.20;;;;;;;;;;4982909;28;20316;-74
2022/07/27 06:33:27;;;;;;;8.00;1.40;;;;;;;;;;4989055;28;20311;-74
2022/07/27 06:35:55;;;;;;;7.73;1.30;;;;;;;;;;4984810;28;20311;-73
2022/07/27 06:38:23;;;;;;;4.80;0.80;;;;;;;;;;4985083;28;20216;-72
2022/07/27 06:40:52;;;;;;;4.00;1.00;;;;;;;;;;4983937;28;20205;-73
2022/07/27 06:43:20;;;;;;;6.67;0.90;;;;;;;;;;4986102;28;20209;-72
2022/07/27 06:45:47;;;;;;;3.47;0.90;;;;;;;;;;4986044;28;20243;-73
2022/07/27 06:48:15;;;;;;;3.60;1.23;;;;;;;;;;4985856;28;20212;-73
2022/07/27 06:50:43;;;;;;;5.40;1.03;;;;;;;;;;4982025;28;20264;-73
2022/07/27 06:53:10;;;;;;;4.30;0.97;;;;;;;;;;4982989;28;20205;-73
2022/07/27 06:55:37;;;;;;;3.10;1.10;;;;;;;;;;4983178;28;20317;-72
2022/07/27 06:58:04;;;;;;;6.00;1.10;;;;;;;;;;4985131;28;20213;-73
2022/07/27 07:00:32;;;;;;;3.97;0.80;;;;;;;;;;4988084;28;20735;-72
2022/07/27 07:03:00;;;;;;;6.43;1.30;;;;;;;;;;4992126;28;20201;-73
2022/07/27 07:05:28;;;;;;;5.37;1.00;;;;;;;;;;4988991;28;20582;-73
2022/07/27 07:07:56;;;;;;;6.23;1.00;;;;;;;;;;4986994;28;20216;-73
2022/07/27 07:10:24;;;;;;;5.97;1.23;;;;;;;;;;4985035;28;20229;-73
2022/07/27 07:12:54;;;;;;;2.67;0.77;;;;;;;;;;4986951;28;20203;-74
2022/07/27 07:15:22;;;;;;;5.53;0.90;;;;;;;;;;4988266;28;20687;-73
2022/07/27 07:17:49;;;;;;;3.30;0.90;;;;;;;;;;4989692;28;20213;-74
2022/07/27 07:20:16;;;;;;;4.13;0.73;;;;;;;;;;4988034;28;20204;-72
2022/07/27 07:22:45;;;;;;;6.23;1.13;;;;;;;;;;4986873;28;20577;-72
2022/07/27 07:25:12;;;;;;;5.40;1.33;;;;;;;;;;4988665;28;20282;-72
2022/07/27 07:27:39;;;;;;;6.43;1.13;;;;;;;;;;4990583;28;20292;-72
2022/07/27 07:30:07;;;;;;;1.47;0.87;;;;;;;;;;4989157;28;20284;-73
2022/07/27 07:32:34;;;;;;;5.17;1.10;;;;;;;;;;4989508;28;20567;-72
2022/07/27 07:35:02;;;;;;;5.87;1.10;;;;;;;;;;4986700;28;20737;-71
2022/07/27 07:37:31;;;;;;;4.90;1.23;;;;;;;;;;4986662;28;20798;-72
2022/07/27 07:39:59;;;;;;;4.03;1.00;;;;;;;;;;4988493;28;20621;-73
2022/07/27 07:42:26;;;;;;;6.47;0.77;;;;;;;;;;4986733;28;20248;-73
2022/07/27 07:44:54;;;;;;;3.83;0.67;;;;;;;;;;4987610;28;20241;-71
2022/07/27 07:47:22;;;;;;;4.53;0.97;;;;;;;;;;4989623;28;20205;-72
2022/07/27 07:49:50;;;;;;;3.30;1.00;;;;;;;;;;4991892;28;20221;-71
2022/07/27 07:52:17;;;;;;;5.40;0.60;;;;;;;;;;4988494;28;20211;-72
2022/07/27 07:54:44;;;;;;;3.47;0.80;;;;;;;;;;4984674;28;20208;-74
2022/07/27 07:57:12;;;;;;;4.37;0.97;;;;;;;;;;4990195;28;20664;-73
2022/07/27 07:59:39;;;;;;;6.03;1.07;;;;;;;;;;4993874;28;20205;-72
2022/07/27 08:02:06;;;;;;;4.23;0.90;;;;;;;;;;4989644;28;20205;-72
2022/07/27 08:04:34;;;;;;;6.97;1.10;;;;;;;;;;4990429;28;20205;-73
2022/07/27 08:07:01;;;;;;;6.83;1.10;;;;;;;;;;4990794;28;20248;-72
2022/07/27 08:09:28;;;;;;;5.67;0.90;;;;;;;;;;4995164;28;20205;-71
2022/07/27 08:11:55;;;;;;;6.17;1.00;;;;;;;;;;4993557;28;20212;-72
2022/07/27 08:14:25;;;;;;;3.63;0.87;;;;;;;;;;4992392;28;20217;-72
2022/07/27 08:16:52;;;;;;;4.37;1.00;;;;;;;;;;4991342;28;20590;-72
2022/07/27 08:19:19;;;;;;;4.00;1.00;;;;;;;;;;4992929;28;20691;-73
2022/07/27 08:21:46;;;;;;;4.67;0.70;;;;;;;;;;4989765;28;20220;-72
2022/07/27 08:24:13;;;;;;;5.10;1.13;;;;;;;;;;4989506;28;20215;-71
2022/07/27 08:26:41;;;;;;;4.93;1.10;;;;;;;;;;4985275;28;20312;-72
2022/07/27 08:29:08;;;;;;;4.50;0.90;;;;;;;;;;4989371;28;20259;-72
2022/07/27 08:31:37;;;;;;;5.80;0.80;;;;;;;;;;4986512;28;20221;-72
2022/07/27 08:34:04;;;;;;;8.47;1.13;;;;;;;;;;4992234;28;20244;-72
2022/07/27 08:36:31;;;;;;;3.87;1.03;;;;;;;;;;4990508;28;20777;-72
2022/07/27 08:39:00;;;;;;;5.03;0.83;;;;;;;;;;4991033;28;20251;-71
2022/07/27 08:41:28;;;;;;;9.70;1.30;;;;;;;;;;4985773;28;20214;-72
2022/07/27 08:43:55;;;;;;;4.13;1.17;;;;;;;;;;4990272;28;20212;-72
2022/07/27 08:46:22;;;;;;;7.60;0.93;;;;;;;;;;4989925;28;20319;-73
2022/07/27 08:48:51;;;;;;;4.30;0.90;;;;;;;;;;4992837;28;20201;-72
2022/07/27 08:51:18;;;;;;;4.23;1.00;;;;;;;;;;4993178;28;20323;-72
2022/07/27 08:53:47;;;;;;;3.07;0.60;;;;;;;;;;4991236;28;20205;-72
2022/07/27 08:56:14;;;;;;;4.40;0.90;;;;;;;;;;4992485;28;20229;-72
2022/07/27 08:58:41;;;;;;;4.47;0.80;;;;;;;;;;4991802;28;20208;-72
2022/07/27 09:01:08;;;;;;;3.43;1.00;;;;;;;;;;4989867;28;20690;-73
2022/07/27 09:03:36;;;;;;;4.63;0.70;;;;;;;;;;4990528;28;20211;-72
2022/07/27 09:06:04;;;;;;;5.73;0.70;;;;;;;;;;4993191;28;20315;-72
2022/07/27 09:08:32;;;;;;;3.90;0.80;;;;;;;;;;4990652;28;20227;-71
2022/07/27 09:11:02;;;;;;;6.50;1.00;;;;;;;;;;4991460;28;20687;-72
2022/07/27 09:13:30;;;;;;;1.63;0.43;;;;;;;;;;4991497;28;20231;-72
2022/07/27 09:15:58;;;;;;;1.70;0.70;;;;;;;;;;4988712;28;20264;-73
2022/07/27 09:18:26;;;;;;;2.57;0.70;;;;;;;;;;4988753;28;20584;-72
2022/07/27 09:23:48;;;;;;;3.00;0.70;;;;;;;;;;5069921;27;20650;-72
2022/07/27 09:26:17;;;;;;;5.27;0.73;;;;;;;;;;5064693;28;20243;-71
2022/07/27 09:28:45;;;;;;;1.27;0.53;;;;;;;;;;5059052;28;20199;-71
2022/07/27 09:31:13;;;;;;;1.37;0.70;;;;;;;;;;5062397;28;20289;-71
2022/07/27 09:33:47;;;;;;;2.13;0.60;;;;;;;;;;5057182;28;20217;-71
2022/07/27 09:36:15;;;;;;;2.10;0.60;;;;;;;;;;5061650;28;20329;-71
2022/07/27 09:38:52;;;;;;;4.07;0.80;;;;;;;;;;5059624;28;20198;-71
2022/07/27 09:41:21;;;;;;;2.10;0.60;;;;;;;;;;5059430;28;20206;-72
2022/07/27 09:43:50;;;;;;;1.77;0.60;;;;;;;;;;5061153;28;20210;-71
2022/07/27 09:46:17;;;;;;;2.10;0.50;;;;;;;;;;5057319;28;20214;-70
2022/07/27 09:48:44;;;;;;;2.23;0.73;;;;;;;;;;5060548;28;20206;-70
2022/07/27 09:51:12;;;;;;;1.57;0.50;;;;;;;;;;5060063;28;20665;-71
2022/07/27 09:53:39;;;;;;;1.40;0.57;;;;;;;;;;5057787;28;20217;-72
2022/07/27 09:56:11;;;;;;;2.67;0.53;;;;;;;;;;5058782;28;20232;-72
2022/07/27 09:58:40;;;;;;;1.03;0.60;;;;;;;;;;5059182;28;20289;-71
2022/07/27 10:01:07;;;;;;;1.40;0.60;;;;;;;;;;5060825;28;21169;-71
2022/07/27 10:03:34;;;;;;;2.67;0.57;;;;;;;;;;5061269;28;20322;-72
2022/07/27 10:06:02;;;;;;;2.13;0.77;;;;;;;;;;5060950;28;20660;-72
2022/07/27 10:08:29;;;;;;;4.33;0.70;;;;;;;;;;5055510;28;20209;-71
2022/07/27 10:10:57;;;;;;;2.03;0.63;;;;;;;;;;5056994;28;20199;-72
2022/07/27 10:13:25;;;;;;;2.03;0.53;;;;;;;;;;5051099;28;20199;-71
2022/07/27 10:15:54;;;;;;;2.97;0.70;;;;;;;;;;5052066;28;20218;-72
2022/07/27 10:18:24;;;;;;;3.57;0.73;;;;;;;;;;5055018;28;20653;-71
2022/07/27 10:20:51;;;;;;;3.20;0.73;;;;;;;;;;5059689;28;20210;-71
2022/07/27 10:23:28;;;;;;;2.13;0.60;;;;;;;;;;5056932;28;20263;-72
2022/07/27 10:26:14;;;;;;;1.43;0.73;;;;;;;;;;5053723;28;20226;-72
2022/07/27 10:28:50;;;;;;;2.00;0.70;;;;;;;;;;5059960;28;20584;-71
2022/07/27 10:31:18;;;;;;;3.80;0.70;;;;;;;;;;5054443;28;20642;-72
2022/07/27 10:33:46;;;;;;;4.10;0.80;;;;;;;;;;5046499;28;20297;-71
2022/07/27 10:36:15;;;;;;;1.60;0.70;;;;;;;;;;5038856;28;20238;-72
2022/07/27 10:38:47;;;;;;;5.10;0.70;;;;;;;;;;5040755;28;20211;-72
2022/07/27 10:41:27;;;;;;;2.70;0.80;;;;;;;;;;5044091;28;20199;-72
2022/07/27 10:44:09;;;;;;;0.97;0.63;;;;;;;;;;5046445;28;20235;-73
2022/07/27 10:46:38;;;;;;;2.40;0.70;;;;;;;;;;5037666;28;20233;-72
2022/07/27 10:49:17;;;;;;;2.03;0.53;;;;;;;;;;5041265;28;20290;-71
2022/07/27 10:51:44;;;;;;;2.37;1.00;;;;;;;;;;5041086;28;20274;-73
2022/07/27 10:54:20;;;;;;;1.83;0.63;;;;;;;;;;5041648;28;20238;-73
2022/07/27 10:56:48;;;;;;;1.13;0.70;;;;;;;;;;5044441;28;20218;-72
2022/07/27 10:59:16;;;;;;;1.93;0.53;;;;;;;;;;5041867;28;20203;-72
2022/07/27 11:01:57;;;;;;;2.07;0.60;;;;;;;;;;5045782;28;20287;-72
2022/07/27 11:04:25;;;;;;;2.30;0.70;;;;;;;;;;5040005;28;20630;-71
2022/07/27 11:06:55;;;;;;;3.87;0.70;;;;;;;;;;5044439;28;20255;-71
2022/07/27 11:09:22;;;;;;;2.17;0.70;;;;;;;;;;5036640;28;20211;-71
2022/07/27 11:11:50;;;;;;;1.17;0.60;;;;;;;;;;5040051;28;20258;-71
2022/07/27 11:14:17;;;;;;;3.17;0.83;;;;;;;;;;5039676;28;20229;-72
2022/07/27 11:16:44;;;;;;;1.17;0.80;;;;;;;;;;5046514;28;20322;-71
2022/07/27 11:19:15;;;;;;;1.90;0.70;;;;;;;;;;5043617;28;20238;-72
2022/07/27 11:21:45;;;;;;;1.97;0.80;;;;;;;;;;5040257;28;20266;-71
2022/07/27 11:24:13;;;;;;;3.67;0.80;;;;;;;;;;5041074;28;20277;-71
2022/07/27 11:26:43;;;;;;;2.30;0.70;;;;;;;;;;5046714;28;20223;-71
2022/07/27 11:29:11;;;;;;;2.60;0.70;;;;;;;;;;5048506;28;20285;-71
2022/07/27 11:31:39;;;;;;;3.30;0.60;;;;;;;;;;5042909;28;20295;-71
2022/07/27 11:34:07;;;;;;;2.20;0.80;;;;;;;;;;5042771;28;20202;-71
2022/07/27 11:36:40;;;;;;;2.73;0.87;;;;;;;;;;5042464;28;20311;-72
2022/07/27 11:39:08;;;;;;;1.07;0.60;;;;;;;;;;5046410;28;20199;-72
2022/07/27 11:41:36;;;;;;;3.37;0.70;;;;;;;;;;5043624;28;20692;-72
2022/07/27 11:44:04;;;;;;;4.00;0.60;;;;;;;;;;5040216;28;20310;-70
2022/07/27 11:46:32;;;;;;;2.00;0.60;;;;;;;;;;5044514;28;20314;-70
2022/07/27 11:49:00;;;;;;;1.30;0.60;;;;;;;;;;5044067;28;20257;-70
2022/07/27 11:51:28;;;;;;;2.20;0.67;;;;;;;;;;5040629;28;20717;-71
2022/07/27 11:54:03;;;;;;;1.83;0.60;;;;;;;;;;5041122;28;20249;-71
2022/07/27 11:56:32;;;;;;;1.80;0.83;;;;;;;;;;5036892;28;20234;-73
2022/07/27 11:59:04;;;;;;;3.03;0.73;;;;;;;;;;5041491;28;20207;-73
2022/07/27 12:01:32;;;;;;;2.00;0.77;;;;;;;;;;5044218;28;20202;-73
2022/07/27 12:04:03;;;;;;;3.63;0.80;;;;;;;;;;5047235;28;20284;-73
2022/07/27 12:06:32;;;;;;;3.20;0.63;;;;;;;;;;5041832;28;20310;-73
2022/07/27 12:08:59;;;;;;;4.40;0.70;;;;;;;;;;5045241;28;20677;-72
2022/07/27 12:11:45;;;;;;;2.10;0.77;;;;;;;;;;5046937;28;20302;-70
2022/07/27 12:14:12;;;;;;;1.03;0.60;;;;;;;;;;5039821;28;20229;-70
2022/07/27 12:16:39;;;;;;;3.33;0.90;;;;;;;;;;5045198;28;20313;-73
2022/07/27 12:19:06;;;;;;;1.30;0.57;;;;;;;;;;5042324;28;20249;-73
2022/07/27 12:21:34;;;;;;;3.37;0.67;;;;;;;;;;5045283;28;20202;-73
2022/07/27 12:24:01;;;;;;;3.40;0.80;;;;;;;;;;5042627;28;20230;-73
2022/07/27 12:26:28;;;;;;;3.03;0.80;;;;;;;;;;5040918;28;20219;-73
2022/07/27 12:29:10;;;;;;;2.73;0.60;;;;;;;;;;5041033;28;20207;-73
2022/07/27 12:31:47;;;;;;;1.87;0.70;;;;;;;;;;5042110;28;20217;-73
2022/07/27 12:34:14;;;;;;;2.93;0.63;;;;;;;;;;5038245;28;20250;-73
2022/07/27 12:36:42;;;;;;;1.00;0.60;;;;;;;;;;5038316;28;20229;-73
2022/07/27 12:39:09;;;;;;;1.83;0.60;;;;;;;;;;5039592;28;20203;-70
2022/07/27 12:41:38;;;;;;;5.57;0.70;;;;;;;;;;5042237;28;20645;-71
2022/07/27 12:44:11;;;;;;;1.77;0.60;;;;;;;;;;5037610;28;20693;-73
2022/07/27 12:46:52;;;;;;;1.37;0.77;;;;;;;;;;5034907;28;20230;-72
2022/07/27 12:49:19;;;;;;;3.20;0.50;;;;;;;;;;5041964;28;20195;-71
2022/07/27 12:51:46;;;;;;;1.10;0.43;;;;;;;;;;5042522;28;20231;-71
2022/07/27 12:54:13;;;;;;;1.80;0.50;;;;;;;;;;5038996;28;20214;-71
2022/07/27 12:56:40;;;;;;;1.73;0.50;;;;;;;;;;5038963;28;20636;-71
2022/07/27 12:59:09;;;;;;;2.27;0.70;;;;;;;;;;5041159;28;20218;-71
2022/07/27 13:01:36;;;;;;;2.73;0.53;;;;;;;;;;5040682;28;20210;-72
2022/07/27 13:04:03;;;;;;;3.10;0.43;;;;;;;;;;5030114;28;20218;-71
2022/07/27 13:06:31;;;;;;;1.17;0.47;;;;;;;;;;5038151;28;20321;-71
2022/07/27 13:08:58;;;;;;;2.10;0.60;;;;;;;;;;5037270;28;20299;-71
2022/07/27 13:11:25;;;;;;;1.97;0.50;;;;;;;;;;5043662;28;20203;-70
2022/07/27 13:13:52;;;;;;;2.10;0.60;;;;;;;;;;5038394;28;20294;-71
2022/07/27 13:16:21;;;;;;;1.23;0.60;;;;;;;;;;5029288;28;20236;-72
2022/07/27 13:18:48;;;;;;;2.17;0.50;;;;;;;;;;5031007;28;20206;-72
2022/07/27 13:21:15;;;;;;;1.77;0.63;;;;;;;;;;5035849;28;20207;-71
2022/07/27 13:23:42;;;;;;;2.40;0.60;;;;;;;;;;5036934;28;20223;-72
2022/07/27 13:26:10;;;;;;;1.63;0.60;;;;;;;;;;5030495;28;20596;-72
2022/07/27 13:28:37;;;;;;;2.27;0.50;;;;;;;;;;5038727;28;20203;-72
2022/07/27 13:31:04;;;;;;;2.17;0.60;;;;;;;;;;5033355;28;20510;-71
2022/07/27 13:33:33;;;;;;;3.27;0.67;;;;;;;;;;5030247;28;20209;-71
2022/07/27 13:36:00;;;;;;;1.57;0.40;;;;;;;;;;5039307;28;20591;-73
2022/07/27 13:38:28;;;;;;;1.43;0.60;;;;;;;;;;5038980;28;20264;-71
2022/07/27 13:40:55;;;;;;;4.73;0.70;;;;;;;;;;5035879;28;20287;-71
2022/07/27 13:43:22;;;;;;;2.63;0.60;;;;;;;;;;5038989;28;20353;-71
2022/07/27 13:45:49;;;;;;;0.90;0.40;;;;;;;;;;5035211;28;20280;-71
2022/07/27 13:48:16;;;;;;;1.23;0.50;;;;;;;;;;5035420;28;20206;-71
2022/07/27 13:50:45;;;;;;;3.77;0.70;;;;;;;;;;5030685;28;20207;-71
2022/07/27 13:53:13;;;;;;;2.03;0.50;;;;;;;;;;5034569;28;20298;-71
2022/07/27 13:55:41;;;;;;;2.10;0.77;;;;;;;;;;5033799;28;20223;-71
2022/07/27 13:58:08;;;;;;;1.10;0.50;;;;;;;;;;5031453;28;20202;-72
2022/07/27 14:00:36;;;;;;;1.90;0.63;;;;;;;;;;5036041;28;21916;-72
2022/07/27 14:03:03;;;;;;;4.37;0.73;;;;;;;;;;5036273;28;20273;-72
2022/07/27 14:05:30;;;;;;;1.97;0.60;;;;;;;;;;5039375;28;20229;-72
2022/07/27 14:07:59;;;;;;;3.60;0.40;;;;;;;;;;5038014;28;20293;-72
2022/07/27 14:10:38;;;;;;;2.90;0.70;;;;;;;;;;5042956;28;20206;-72
2022/07/27 14:13:06;;;;;;;1.57;0.43;;;;;;;;;;5040024;28;20782;-72
2022/07/27 14:15:34;;;;;;;0.80;0.50;;;;;;;;;;5047094;28;20219;-72
2022/07/27 14:18:01;;;;;;;3.00;0.70;;;;;;;;;;5038953;28;20293;-72
2022/07/27 14:20:28;;;;;;;1.70;0.40;;;;;;;;;;5039886;28;20226;-73
2022/07/27 14:22:55;;;;;;;2.30;0.50;;;;;;;;;;5038544;28;20211;-72
2022/07/27 14:25:24;;;;;;;3.43;1.07;;;;;;;;;;5042301;28;20309;-72
2022/07/27 14:27:51;;;;;;;2.03;0.70;;;;;;;;;;5041593;28;20203;-72
2022/07/27 14:30:18;;;;;;;2.70;0.40;;;;;;;;;;5043745;28;20283;-72
2022/07/27 14:32:45;;;;;;;2.23;0.70;;;;;;;;;;5043251;28;20694;-72
2022/07/27 14:35:12;;;;;;;1.73;0.67;;;;;;;;;;5038197;28;20307;-72
2022/07/27 14:37:46;;;;;;;1.40;0.40;;;;;;;;;;5040056;28;20231;-71
2022/07/27 14:40:14;;;;;;;4.80;0.90;;;;;;;;;;5038895;28;20231;-71
2022/07/27 14:42:42;;;;;;;0.93;0.50;;;;;;;;;;5046352;28;20213;-71
2022/07/27 14:45:10;;;;;;;1.27;0.60;;;;;;;;;;5043780;28;20714;-71
2022/07/27 14:47:37;;;;;;;3.10;0.50;;;;;;;;;;5036329;28;20333;-72
2022/07/27 14:50:06;;;;;;;5.43;0.70;;;;;;;;;;5036039;28;20875;-73
2022/07/27 14:52:34;;;;;;;4.13;0.63;;;;;;;;;;5039217;28;20211;-71
2022/07/27 14:55:01;;;;;;;1.20;0.53;;;;;;;;;;5039353;28;20199;-71